Lineville, Iowa
Current Conditions -  °F | °C
As of 6:03 PM on Monday 22 Dec 2014 (Local Time) from KLWD Reporting Station
Light Rain Light Rain  
Wind Chill: 37°   Ceiling: 200
Heat Index: 41°   Visibility: 2mi
Dew Point: 41°   Wind: 6mph
Humidity: 100%   Direction: 120°ESE
Pressure: 29.42"   Gusts: NA
Location:  40.58°N, 93.52°W
Report Text: KLWD 230003Z AUTO 12005KT 2SM -RA BR OVC002 05/05 A2942 RMK AO2 P0001 T00500050
Loading
Personal Weather Stations






























Interactive Weather Map New forecast layout! Learn more

10-Day Weather Forecast

Advertisements
Track Severe Weather on mobile